createdAt,value
2023-05-08T00:01:00.929Z,8.56
2023-05-08T00:04:05.100Z,8.55
2023-05-08T00:07:08.668Z,8.54
2023-05-08T00:10:13.721Z,8.47
2023-05-08T00:13:17.693Z,8.47
2023-05-08T00:16:22.708Z,8.46
2023-05-08T00:19:26.308Z,8.44
2023-05-08T00:22:29.832Z,8.44
2023-05-08T00:25:33.423Z,8.43
2023-05-08T00:28:36.982Z,8.40
2023-05-08T00:31:41.934Z,8.45
2023-05-08T00:34:45.495Z,8.41
2023-05-08T00:37:49.126Z,8.38
2023-05-08T00:40:52.953Z,8.36
2023-05-08T00:43:56.612Z,8.36
2023-05-08T00:47:01.863Z,8.35
2023-05-08T00:50:07.282Z,8.36
2023-05-08T00:53:13.768Z,8.32
2023-05-08T00:56:18.287Z,8.31
2023-05-08T00:59:23.665Z,8.31
2023-05-08T01:02:29.095Z,8.30
2023-05-08T01:05:33.316Z,8.29
2023-05-08T01:08:36.833Z,8.22
2023-05-08T01:12:01.609Z,8.22
2023-05-08T01:15:17.670Z,8.18
2023-05-08T01:18:32.366Z,8.12
2023-05-08T01:21:46.807Z,8.06
2023-05-08T01:25:29.503Z,8.04
2023-05-08T01:29:07.777Z,8.07
2023-05-08T01:32:20.458Z,7.99
2023-05-08T01:35:30.913Z,7.99
2023-05-08T01:38:44.327Z,7.92
2023-05-08T01:42:00.159Z,7.93
2023-05-08T01:45:14.096Z,7.87
2023-05-08T01:48:26.825Z,7.86
2023-05-08T01:51:37.388Z,7.84
2023-05-08T01:54:49.722Z,7.80
2023-05-08T01:57:59.222Z,7.76
2023-05-08T02:01:04.762Z,7.75
2023-05-08T02:04:12.716Z,7.74
2023-05-08T02:07:16.889Z,7.68
2023-05-08T02:10:26.210Z,7.71
2023-05-08T02:13:32.039Z,7.65
2023-05-08T02:16:38.453Z,7.59
2023-05-08T02:19:45.789Z,7.51
2023-05-08T02:22:53.109Z,7.52
2023-05-08T02:25:58.287Z,7.41
2023-05-08T02:29:04.513Z,7.46
2023-05-08T02:32:09.995Z,7.33
2023-05-08T02:35:19.614Z,7.35
2023-05-08T02:38:26.895Z,7.27
2023-05-08T02:41:34.910Z,7.22
2023-05-08T02:44:38.634Z,7.16
2023-05-08T02:48:08.923Z,7.22
2023-05-08T02:51:24.705Z,7.13
2023-05-08T02:54:39.475Z,7.15
2023-05-08T02:57:51.990Z,7.13
2023-05-08T03:01:06.586Z,7.08
2023-05-08T03:04:13.753Z,7.06
2023-05-08T03:07:22.802Z,6.98
2023-05-08T03:10:34.279Z,6.99
2023-05-08T03:13:43.111Z,7.03
2023-05-08T03:16:52.096Z,7.02
2023-05-08T03:20:01.951Z,7.01
2023-05-08T03:23:10.842Z,6.99
2023-05-08T03:26:19.610Z,6.93
2023-05-08T03:29:25.744Z,6.95
2023-05-08T03:32:31.099Z,6.91
2023-05-08T03:35:38.284Z,6.89
2023-05-08T03:38:44.005Z,6.89
2023-05-08T03:41:48.038Z,6.85
2023-05-08T03:44:53.326Z,6.91
2023-05-08T03:47:57.646Z,6.87
2023-05-08T03:51:03.452Z,6.86
2023-05-08T03:54:08.311Z,6.85
2023-05-08T03:57:11.988Z,6.87
2023-05-08T04:00:26.825Z,6.82
2023-05-08T04:03:49.313Z,6.77
2023-05-08T04:07:05.137Z,6.73
2023-05-08T04:10:17.583Z,6.79
2023-05-08T04:13:29.968Z,6.79
2023-05-08T04:16:41.198Z,6.77
2023-05-08T04:19:48.261Z,6.76
2023-05-08T04:22:55.364Z,6.75
2023-05-08T04:26:05.358Z,6.78
2023-05-08T04:29:09.880Z,6.75
2023-05-08T04:32:14.493Z,6.78
2023-05-08T04:35:18.206Z,6.84
2023-05-08T04:38:21.682Z,6.94
2023-05-08T04:41:27.153Z,7.07
2023-05-08T04:44:30.783Z,7.08
2023-05-08T04:47:34.418Z,7.24
2023-05-08T04:50:38.012Z,7.21
2023-05-08T04:53:41.582Z,7.39
2023-05-08T04:56:46.425Z,7.38
2023-05-08T04:59:50.065Z,7.54
2023-05-08T05:02:53.648Z,7.60
2023-05-08T05:06:00.131Z,7.54
2023-05-08T05:09:03.668Z,7.71
2023-05-08T05:12:09.003Z,7.80
2023-05-08T05:15:13.410Z,7.98
2023-05-08T05:18:17.260Z,8.02
2023-05-08T05:21:20.860Z,8.29
2023-05-08T05:24:24.403Z,8.22
2023-05-08T05:27:29.233Z,8.43
2023-05-08T05:30:32.741Z,9.20
2023-05-08T05:33:36.215Z,9.17
2023-05-08T05:36:39.796Z,8.85
2023-05-08T05:39:43.275Z,8.82
2023-05-08T05:42:52.263Z,9.32
2023-05-08T05:45:56.165Z,9.23
2023-05-08T05:48:59.815Z,9.58
2023-05-08T05:52:03.353Z,9.78
2023-05-08T05:55:07.937Z,9.47
2023-05-08T05:58:12.821Z,9.55
2023-05-08T06:01:16.573Z,9.83
2023-05-08T06:04:20.360Z,9.67
2023-05-08T06:07:24.105Z,10.06
2023-05-08T06:10:27.918Z,9.76
2023-05-08T06:13:33.171Z,10.17
2023-05-08T06:16:36.809Z,10.28
2023-05-08T06:19:40.424Z,10.04
2023-05-08T06:22:44.085Z,9.87
2023-05-08T06:25:48.075Z,10.39
2023-05-08T06:28:53.149Z,9.83
2023-05-08T06:31:56.960Z,9.86
2023-05-08T06:35:00.668Z,10.61
2023-05-08T06:38:04.511Z,10.13
2023-05-08T06:41:08.085Z,9.93
2023-05-08T06:44:13.303Z,10.41
2023-05-08T06:47:16.870Z,10.94
2023-05-08T06:50:20.741Z,10.80
2023-05-08T06:53:24.231Z,10.63
2023-05-08T06:56:27.751Z,10.69
2023-05-08T06:59:32.579Z,10.78
2023-05-08T07:02:36.157Z,10.71
2023-05-08T07:05:39.787Z,10.96
2023-05-08T07:08:43.454Z,10.89
2023-05-08T07:11:48.171Z,11.15
2023-05-08T07:14:53.829Z,11.31
2023-05-08T07:17:58.265Z,11.22
2023-05-08T07:21:01.765Z,11.27
2023-05-08T07:24:05.853Z,11.67
2023-05-08T07:27:09.992Z,11.71
2023-05-08T07:30:15.799Z,11.96
2023-05-08T07:33:19.778Z,11.88
2023-05-08T07:36:23.516Z,11.63
2023-05-08T07:39:27.085Z,11.86
2023-05-08T07:42:30.640Z,12.01
2023-05-08T07:45:36.960Z,12.77
2023-05-08T07:48:40.489Z,12.36
2023-05-08T07:51:43.977Z,12.62
2023-05-08T07:54:47.427Z,13.34
2023-05-08T07:57:51.000Z,13.48
2023-05-08T08:00:55.959Z,13.74
2023-05-08T08:03:59.608Z,13.68
2023-05-08T08:07:03.848Z,13.52
2023-05-08T08:10:09.243Z,13.69
2023-05-08T08:13:12.922Z,13.53
2023-05-08T08:16:18.059Z,13.52
2023-05-08T08:19:21.718Z,13.36
2023-05-08T08:22:25.839Z,13.54
2023-05-08T08:25:29.436Z,13.81
2023-05-08T08:28:33.075Z,14.16
2023-05-08T08:31:38.193Z,14.36
2023-05-08T08:34:41.990Z,14.14
2023-05-08T08:37:45.813Z,14.11
2023-05-08T08:40:49.458Z,14.06
2023-05-08T08:43:53.066Z,14.14
2023-05-08T08:47:00.554Z,13.47
2023-05-08T08:50:05.550Z,13.58
2023-05-08T08:53:15.826Z,13.73
2023-05-08T08:56:24.668Z,13.81
2023-05-08T08:59:30.927Z,14.04
2023-05-08T09:02:37.132Z,14.50
2023-05-08T09:05:41.752Z,14.61
2023-05-08T09:08:46.161Z,14.58
2023-05-08T09:11:50.032Z,14.70
2023-05-08T09:14:53.582Z,15.25
2023-05-08T09:17:58.650Z,15.30
2023-05-08T09:21:02.966Z,15.36
2023-05-08T09:24:07.649Z,15.43
2023-05-08T09:27:23.448Z,15.95
2023-05-08T09:30:27.068Z,16.32
2023-05-08T09:33:31.970Z,16.77
2023-05-08T09:36:35.956Z,16.50
2023-05-08T09:39:41.466Z,16.49
2023-05-08T09:42:45.403Z,16.09
2023-05-08T09:45:48.954Z,15.89
2023-05-08T09:48:55.416Z,15.81
2023-05-08T09:51:59.141Z,15.40
2023-05-08T09:55:04.969Z,15.71
2023-05-08T09:58:08.681Z,16.44
2023-05-08T10:01:31.491Z,16.18
2023-05-08T10:04:39.203Z,15.93
2023-05-08T10:07:42.940Z,16.83
2023-05-08T10:10:46.610Z,16.42
2023-05-08T10:13:50.121Z,16.51
2023-05-08T10:16:55.736Z,17.07
2023-05-08T10:20:09.659Z,16.96
2023-05-08T10:23:17.958Z,16.86
2023-05-08T10:26:29.669Z,16.90
2023-05-08T10:29:42.554Z,16.58
2023-05-08T10:32:55.229Z,16.55
2023-05-08T10:36:01.565Z,16.59
2023-05-08T10:39:06.450Z,16.66
2023-05-08T10:42:10.023Z,17.00
2023-05-08T10:45:34.461Z,17.18
2023-05-08T10:49:01.710Z,17.52
2023-05-08T10:52:22.314Z,17.42
2023-05-08T10:55:32.168Z,17.72
2023-05-08T10:58:39.372Z,17.73
2023-05-08T11:01:43.816Z,17.74
2023-05-08T11:04:47.567Z,17.21
2023-05-08T11:08:03.386Z,17.26
2023-05-08T11:11:15.181Z,17.25
2023-05-08T11:14:19.336Z,17.40
2023-05-08T11:17:26.175Z,17.68
2023-05-08T11:20:41.119Z,17.45
2023-05-08T11:23:57.082Z,17.59
2023-05-08T11:27:00.880Z,17.76
2023-05-08T11:30:36.131Z,17.71
2023-05-08T11:33:41.064Z,17.79
2023-05-08T11:37:03.088Z,17.77
2023-05-08T11:40:50.556Z,17.42
2023-05-08T11:44:22.010Z,17.65
2023-05-08T11:47:32.281Z,17.92
2023-05-08T11:50:37.628Z,17.88
2023-05-08T11:53:41.824Z,17.81
2023-05-08T11:56:50.643Z,18.06
2023-05-08T11:59:58.317Z,17.78
2023-05-08T12:03:01.968Z,17.84
2023-05-08T12:06:06.482Z,18.28
2023-05-08T12:09:15.925Z,18.29
2023-05-08T12:12:20.892Z,18.29
2023-05-08T12:15:24.432Z,18.42
2023-05-08T12:18:30.890Z,18.45
2023-05-08T12:21:34.468Z,18.43
2023-05-08T12:24:38.146Z,18.58
2023-05-08T12:27:44.202Z,18.72
2023-05-08T12:30:48.588Z,18.93
2023-05-08T12:33:52.991Z,18.67
2023-05-08T12:37:06.135Z,18.56
2023-05-08T12:40:26.041Z,18.91
2023-05-08T12:43:39.894Z,18.81
2023-05-08T12:46:48.776Z,18.62
2023-05-08T12:49:52.740Z,18.83
2023-05-08T12:53:02.440Z,19.09
2023-05-08T12:56:06.863Z,19.00
2023-05-08T12:59:11.837Z,19.29
2023-05-08T13:02:18.351Z,18.98
2023-05-08T13:05:23.888Z,19.38
2023-05-08T13:08:33.572Z,19.24
2023-05-08T13:11:38.526Z,19.39
2023-05-08T13:14:43.559Z,19.28
2023-05-08T13:17:47.083Z,19.67
2023-05-08T13:20:50.746Z,19.31
2023-05-08T13:23:54.341Z,19.00
2023-05-08T13:26:57.816Z,19.20
2023-05-08T13:30:02.844Z,19.65
2023-05-08T13:33:07.168Z,19.29
2023-05-08T13:36:10.959Z,19.56
2023-05-08T13:39:15.502Z,19.68
2023-05-08T13:42:19.122Z,19.37
2023-05-08T13:45:34.822Z,19.25
2023-05-08T13:48:38.500Z,19.40
2023-05-08T13:51:43.844Z,19.50
2023-05-08T13:54:50.559Z,19.57
2023-05-08T13:57:54.140Z,19.24
2023-05-08T14:01:00.369Z,19.37
2023-05-08T14:04:08.890Z,19.60
2023-05-08T14:07:12.544Z,19.46
2023-05-08T14:10:17.107Z,19.59
2023-05-08T14:13:20.826Z,19.68
2023-05-08T14:16:25.902Z,19.89
2023-05-08T14:19:29.444Z,20.19
2023-05-08T14:22:33.043Z,19.87
2023-05-08T14:25:36.744Z,19.99
2023-05-08T14:28:40.270Z,20.16
2023-05-08T14:31:45.270Z,20.00
2023-05-08T14:34:49.154Z,20.25
2023-05-08T14:37:52.690Z,19.80
2023-05-08T14:40:56.242Z,19.82
2023-05-08T14:44:00.272Z,19.84
2023-05-08T14:47:05.451Z,19.78
2023-05-08T14:50:10.486Z,20.02
2023-05-08T14:53:14.197Z,20.21
2023-05-08T14:56:18.101Z,20.04
2023-05-08T14:59:21.665Z,20.09
2023-05-08T15:02:27.307Z,20.02
2023-05-08T15:05:31.313Z,20.17
2023-05-08T15:08:34.890Z,20.04
2023-05-08T15:11:38.696Z,19.95
2023-05-08T15:14:42.264Z,20.11
2023-05-08T15:17:47.125Z,20.30
2023-05-08T15:20:50.638Z,20.03
2023-05-08T15:23:54.837Z,20.08
2023-05-08T15:26:58.416Z,19.97
2023-05-08T15:30:01.925Z,19.98
2023-05-08T15:33:07.020Z,20.04
2023-05-08T15:36:10.631Z,20.27
2023-05-08T15:39:14.554Z,19.98
2023-05-08T15:42:18.017Z,20.05
2023-05-08T15:45:30.492Z,19.90
2023-05-08T15:48:35.549Z,19.82
2023-05-08T15:51:39.194Z,20.17
2023-05-08T15:54:42.765Z,20.10
2023-05-08T15:57:46.270Z,20.18
2023-05-08T16:00:50.022Z,19.99
2023-05-08T16:03:54.993Z,19.79
2023-05-08T16:07:00.011Z,19.59
2023-05-08T16:10:05.331Z,19.41
2023-05-08T16:13:10.553Z,19.32
2023-05-08T16:16:14.374Z,19.35
2023-05-08T16:19:19.352Z,19.56
2023-05-08T16:22:23.877Z,19.33
2023-05-08T16:25:27.774Z,19.34
2023-05-08T16:28:31.371Z,19.39
2023-05-08T16:31:35.011Z,19.23
2023-05-08T16:34:40.008Z,19.20
2023-05-08T16:37:44.038Z,19.09
2023-05-08T16:40:47.789Z,19.16
2023-05-08T16:43:51.445Z,19.11
2023-05-08T16:46:54.995Z,19.14
2023-05-08T16:49:59.978Z,19.17
2023-05-08T16:53:03.676Z,19.36
2023-05-08T16:56:08.185Z,19.06
2023-05-08T16:59:11.743Z,18.90
2023-05-08T17:02:18.689Z,18.73
2023-05-08T17:05:24.414Z,18.68
2023-05-08T17:08:27.848Z,18.62
2023-05-08T17:11:31.337Z,18.64
2023-05-08T17:14:35.092Z,18.57
2023-05-08T17:17:38.732Z,18.61
2023-05-08T17:20:43.727Z,18.60
2023-05-08T17:23:47.313Z,18.42
2023-05-08T17:26:50.830Z,18.34
2023-05-08T17:29:56.528Z,18.26
2023-05-08T17:33:00.264Z,18.20
2023-05-08T17:36:05.882Z,18.12
2023-05-08T17:39:09.377Z,18.11
2023-05-08T17:42:12.979Z,17.98
2023-05-08T17:45:16.469Z,18.02
2023-05-08T17:48:19.969Z,18.03
2023-05-08T17:51:24.904Z,17.84
2023-05-08T17:54:28.511Z,17.79
2023-05-08T17:57:32.102Z,17.64
2023-05-08T18:00:35.548Z,17.56
2023-05-08T18:03:39.174Z,17.46
2023-05-08T18:06:47.441Z,17.31
2023-05-08T18:09:50.977Z,17.25
2023-05-08T18:12:54.456Z,17.16
2023-05-08T18:16:21.203Z,17.08
2023-05-08T18:19:25.153Z,16.93
2023-05-08T18:22:30.114Z,16.80
2023-05-08T18:25:33.586Z,16.70
2023-05-08T18:28:37.429Z,16.70
2023-05-08T18:31:41.548Z,16.60
2023-05-08T18:34:45.258Z,16.56
2023-05-08T18:37:50.634Z,16.48
2023-05-08T18:40:54.207Z,16.36
2023-05-08T18:44:01.412Z,16.29
2023-05-08T18:47:05.330Z,16.28
2023-05-08T18:50:10.490Z,16.11
2023-05-08T18:53:15.577Z,16.02
2023-05-08T18:56:19.626Z,16.03
2023-05-08T18:59:23.306Z,15.92
2023-05-08T19:02:28.101Z,15.83
2023-05-08T19:05:31.766Z,15.74
2023-05-08T19:08:36.659Z,15.67
2023-05-08T19:11:40.205Z,15.55
2023-05-08T19:14:43.850Z,15.39
2023-05-08T19:17:47.576Z,15.27
2023-05-08T19:20:51.147Z,15.17
2023-05-08T19:23:56.186Z,15.08
2023-05-08T19:27:00.137Z,15.05
2023-05-08T19:30:04.487Z,14.85
2023-05-08T19:33:08.531Z,14.75
2023-05-08T19:36:12.042Z,14.70
2023-05-08T19:39:17.836Z,14.61
2023-05-08T19:42:21.822Z,14.55
2023-05-08T19:45:25.795Z,14.58
2023-05-08T19:48:29.413Z,14.47
2023-05-08T19:51:33.318Z,14.41
2023-05-08T19:54:38.381Z,14.35
2023-05-08T19:57:41.994Z,14.23
2023-05-08T20:00:50.905Z,14.16
2023-05-08T20:03:54.890Z,14.12
2023-05-08T20:06:59.038Z,14.09
2023-05-08T20:10:04.282Z,14.03
2023-05-08T20:13:07.783Z,13.93
2023-05-08T20:16:11.498Z,13.88
2023-05-08T20:19:15.210Z,13.89
2023-05-08T20:22:18.792Z,13.78
2023-05-08T20:25:23.819Z,13.74
2023-05-08T20:28:27.346Z,13.69
2023-05-08T20:31:30.979Z,13.76
2023-05-08T20:34:34.607Z,13.76
2023-05-08T20:37:45.169Z,13.65
2023-05-08T20:40:50.316Z,13.64
2023-05-08T20:43:53.845Z,13.53
2023-05-08T20:46:57.556Z,13.50
2023-05-08T20:50:01.036Z,13.39
2023-05-08T20:53:04.610Z,13.29
2023-05-08T20:56:09.797Z,13.25
2023-05-08T20:59:13.913Z,13.20
2023-05-08T21:02:17.445Z,13.21
2023-05-08T21:05:20.973Z,13.14
2023-05-08T21:08:26.368Z,13.08
2023-05-08T21:11:31.298Z,13.08
2023-05-08T21:14:36.579Z,13.06
2023-05-08T21:17:40.155Z,13.03
2023-05-08T21:20:49.653Z,12.99
2023-05-08T21:23:53.459Z,12.96
2023-05-08T21:26:59.731Z,12.98
2023-05-08T21:30:03.508Z,12.98
2023-05-08T21:33:07.059Z,12.97
2023-05-08T21:36:10.600Z,12.90
2023-05-08T21:39:14.678Z,12.91
2023-05-08T21:42:19.541Z,12.91
2023-05-08T21:45:23.131Z,12.86
2023-05-08T21:48:26.665Z,12.87
2023-05-08T21:51:30.176Z,12.90
2023-05-08T21:54:33.636Z,12.93
2023-05-08T21:57:38.680Z,12.87
2023-05-08T22:00:42.420Z,12.89
2023-05-08T22:03:45.914Z,12.94
2023-05-08T22:06:49.609Z,12.98
2023-05-08T22:09:53.073Z,12.91
2023-05-08T22:12:58.127Z,13.03
2023-05-08T22:16:01.749Z,13.08
2023-05-08T22:19:05.353Z,13.10
2023-05-08T22:22:09.007Z,13.13
2023-05-08T22:25:13.079Z,13.14
2023-05-08T22:28:18.448Z,13.19
2023-05-08T22:31:22.263Z,13.15
2023-05-08T22:34:26.300Z,13.09
2023-05-08T22:37:29.991Z,13.08
2023-05-08T22:40:33.581Z,13.06
2023-05-08T22:43:39.210Z,12.99
2023-05-08T22:46:42.941Z,13.08
2023-05-08T22:49:48.083Z,12.99
2023-05-08T22:52:51.774Z,12.97
2023-05-08T22:55:55.313Z,12.91
2023-05-08T22:59:00.283Z,12.87
2023-05-08T23:02:03.861Z,12.87
2023-05-08T23:05:09.226Z,12.91
2023-05-08T23:08:12.679Z,12.82
2023-05-08T23:11:16.562Z,12.75
2023-05-08T23:14:21.455Z,12.66
2023-05-08T23:17:24.993Z,12.63
2023-05-08T23:20:28.631Z,12.66
2023-05-08T23:23:32.700Z,12.66
2023-05-08T23:26:36.440Z,12.58
2023-05-08T23:29:41.516Z,12.52
2023-05-08T23:32:45.693Z,12.49
2023-05-08T23:35:49.140Z,12.43
2023-05-08T23:38:52.643Z,12.47
2023-05-08T23:41:56.138Z,12.50
2023-05-08T23:45:01.076Z,12.42
2023-05-08T23:48:04.982Z,12.42
2023-05-08T23:51:08.533Z,12.37
2023-05-08T23:54:11.973Z,12.28
2023-05-08T23:57:15.491Z,12.27
